createdAt,value
2018-09-23T00:02:13.152Z,14.70
2018-09-23T00:04:41.517Z,14.60
2018-09-23T00:07:09.864Z,14.60
2018-09-23T00:09:38.176Z,14.60
2018-09-23T00:12:06.621Z,14.60
2018-09-23T00:14:34.987Z,14.50
2018-09-23T00:17:03.378Z,14.50
2018-09-23T00:19:31.747Z,14.50
2018-09-23T00:22:00.101Z,14.40
2018-09-23T00:24:28.500Z,14.40
2018-09-23T00:26:56.833Z,14.30
2018-09-23T00:29:30.449Z,14.20
2018-09-23T00:31:59.080Z,14.30
2018-09-23T00:34:27.448Z,14.30
2018-09-23T00:36:55.803Z,14.20
2018-09-23T00:39:24.143Z,14.00
2018-09-23T00:41:52.511Z,14.00
2018-09-23T00:44:20.876Z,14.00
2018-09-23T00:46:49.285Z,13.80
2018-09-23T00:49:17.621Z,13.80
2018-09-23T00:51:45.963Z,13.70
2018-09-23T00:54:14.358Z,13.60
2018-09-23T00:56:42.674Z,13.60
2018-09-23T00:59:11.036Z,13.60
2018-09-23T01:01:39.376Z,13.50
2018-09-23T01:04:07.763Z,13.60
2018-09-23T01:06:36.092Z,13.60
2018-09-23T01:09:06.448Z,13.60
2018-09-23T01:11:34.764Z,13.60
2018-09-23T01:14:03.237Z,13.60
2018-09-23T01:16:31.597Z,13.50
2018-09-23T01:18:59.953Z,13.70
2018-09-23T01:21:28.312Z,13.70
2018-09-23T01:23:56.699Z,13.50
2018-09-23T01:26:25.070Z,13.50
2018-09-23T01:28:53.436Z,13.40
2018-09-23T01:31:21.759Z,13.40
2018-09-23T01:33:50.103Z,13.30
2018-09-23T01:36:18.431Z,13.30
2018-09-23T01:38:46.774Z,13.30
2018-09-23T01:41:15.104Z,13.30
2018-09-23T01:43:43.499Z,13.30
2018-09-23T01:46:11.857Z,13.40
2018-09-23T01:48:40.162Z,13.30
2018-09-23T01:51:08.500Z,13.40
2018-09-23T01:53:36.849Z,13.30
2018-09-23T01:56:05.164Z,13.10
2018-09-23T01:58:33.487Z,13.10
2018-09-23T02:01:01.794Z,13.20
2018-09-23T02:03:30.156Z,13.20
2018-09-23T02:05:58.491Z,13.20
2018-09-23T02:08:26.813Z,13.10
2018-09-23T02:10:55.163Z,13.00
2018-09-23T02:13:23.492Z,13.10
2018-09-23T02:15:51.837Z,13.00
2018-09-23T02:18:20.175Z,13.00
2018-09-23T02:20:48.487Z,13.10
2018-09-23T02:23:16.833Z,13.10
2018-09-23T02:25:45.152Z,13.00
2018-09-23T02:28:13.509Z,13.00
2018-09-23T02:30:41.832Z,12.90
2018-09-23T02:33:10.171Z,12.90
2018-09-23T02:35:38.516Z,13.00
2018-09-23T02:38:06.892Z,13.00
2018-09-23T02:40:35.219Z,13.10
2018-09-23T02:43:03.556Z,13.10
2018-09-23T02:45:31.897Z,13.10
2018-09-23T02:48:00.195Z,13.10
2018-09-23T02:50:28.551Z,13.00
2018-09-23T02:52:56.952Z,13.10
2018-09-23T02:55:25.267Z,13.10
2018-09-23T02:57:53.597Z,13.10
2018-09-23T03:00:21.901Z,13.10
2018-09-23T03:02:50.241Z,13.10
2018-09-23T03:05:18.581Z,13.10
2018-09-23T03:07:46.938Z,13.20
2018-09-23T03:10:15.268Z,13.20
2018-09-23T03:12:43.609Z,13.30
2018-09-23T03:15:11.940Z,13.20
2018-09-23T03:17:40.311Z,13.10
2018-09-23T03:20:08.692Z,13.20
2018-09-23T03:22:37.008Z,13.10
2018-09-23T03:25:05.437Z,13.10
2018-09-23T03:27:33.749Z,13.20
2018-09-23T03:30:02.098Z,13.20
2018-09-23T03:32:30.400Z,13.20
2018-09-23T03:34:58.825Z,13.20
2018-09-23T03:37:27.131Z,13.20
2018-09-23T03:39:55.464Z,13.20
2018-09-23T03:42:23.821Z,13.20
2018-09-23T03:44:52.173Z,13.10
2018-09-23T03:47:20.505Z,13.10
2018-09-23T03:49:48.849Z,13.10
2018-09-23T03:52:17.200Z,13.30
2018-09-23T03:54:45.534Z,13.30
2018-09-23T03:57:13.855Z,13.30
2018-09-23T03:59:42.185Z,13.40
2018-09-23T04:02:10.549Z,13.40
2018-09-23T04:04:38.895Z,13.40
2018-09-23T04:07:07.223Z,13.40
2018-09-23T04:09:35.557Z,13.50
2018-09-23T04:12:03.877Z,13.50
2018-09-23T04:14:32.202Z,13.50
2018-09-23T04:17:00.529Z,13.50
2018-09-23T04:19:28.868Z,13.50
2018-09-23T04:21:57.188Z,13.50
2018-09-23T04:24:25.520Z,13.60
2018-09-23T04:26:53.862Z,13.60
2018-09-23T04:29:22.210Z,13.60
2018-09-23T04:31:50.527Z,13.60
2018-09-23T04:34:18.992Z,13.60
2018-09-23T04:36:47.329Z,13.70
2018-09-23T04:39:15.642Z,13.70
2018-09-23T04:41:43.979Z,13.70
2018-09-23T04:44:12.320Z,13.70
2018-09-23T04:46:40.674Z,13.70
2018-09-23T04:49:08.977Z,13.80
2018-09-23T04:51:37.363Z,13.90
2018-09-23T04:54:05.749Z,13.90
2018-09-23T04:56:34.144Z,13.90
2018-09-23T04:59:02.443Z,14.00
2018-09-23T05:01:30.784Z,14.10
2018-09-23T05:03:59.108Z,14.20
2018-09-23T05:06:27.444Z,14.20
2018-09-23T05:08:55.760Z,14.30
2018-09-23T05:11:24.137Z,14.40
2018-09-23T05:13:52.484Z,14.50
2018-09-23T05:16:20.884Z,14.50
2018-09-23T05:18:49.286Z,14.50
2018-09-23T05:21:17.640Z,14.50
2018-09-23T05:23:45.981Z,14.60
2018-09-23T05:26:14.367Z,14.60
2018-09-23T05:28:42.676Z,14.70
2018-09-23T05:31:11.025Z,14.80
2018-09-23T05:33:39.348Z,14.90
2018-09-23T05:36:07.736Z,14.90
2018-09-23T05:38:36.108Z,15.00
2018-09-23T05:41:04.483Z,15.10
2018-09-23T05:43:32.873Z,15.20
2018-09-23T05:46:01.680Z,15.20
2018-09-23T05:48:30.050Z,15.40
2018-09-23T05:50:58.384Z,15.50
2018-09-23T05:53:26.761Z,15.50
2018-09-23T05:55:55.083Z,15.50
2018-09-23T05:58:23.449Z,15.60
2018-09-23T06:00:53.503Z,15.60
2018-09-23T06:03:21.905Z,15.70
2018-09-23T06:05:50.253Z,15.80
2018-09-23T06:08:18.575Z,15.90
2018-09-23T06:10:46.949Z,15.90
2018-09-23T06:13:15.268Z,16.00
2018-09-23T06:15:43.620Z,16.10
2018-09-23T06:18:11.967Z,16.20
2018-09-23T06:20:40.273Z,16.20
2018-09-23T06:23:08.617Z,16.30
2018-09-23T06:25:36.977Z,16.30
2018-09-23T06:28:05.345Z,16.30
2018-09-23T06:30:33.644Z,16.40
2018-09-23T06:33:01.976Z,16.40
2018-09-23T06:35:30.359Z,16.50
2018-09-23T06:37:58.688Z,16.50
2018-09-23T06:40:27.029Z,16.60
2018-09-23T06:42:55.356Z,16.80
2018-09-23T06:45:23.695Z,16.80
2018-09-23T06:47:52.060Z,16.90
2018-09-23T06:50:20.396Z,17.00
2018-09-23T06:52:48.752Z,17.10
2018-09-23T06:55:17.103Z,17.10
2018-09-23T06:57:45.452Z,17.30
2018-09-23T07:00:13.792Z,17.60
2018-09-23T07:02:42.135Z,17.60
2018-09-23T07:05:10.449Z,17.70
2018-09-23T07:07:38.809Z,17.70
2018-09-23T07:10:07.206Z,17.80
2018-09-23T07:12:35.556Z,17.80
2018-09-23T07:15:04.260Z,17.80
2018-09-23T07:17:32.616Z,17.90
2018-09-23T07:20:00.961Z,17.90
2018-09-23T07:22:29.319Z,17.80
2018-09-23T07:24:57.663Z,17.80
2018-09-23T07:27:26.100Z,17.80
2018-09-23T07:29:54.493Z,18.00
2018-09-23T07:32:22.817Z,18.00
2018-09-23T07:34:51.156Z,18.00
2018-09-23T07:37:19.504Z,18.00
2018-09-23T07:39:47.875Z,18.10
2018-09-23T07:42:16.240Z,18.20
2018-09-23T07:44:44.552Z,18.30
2018-09-23T07:47:12.964Z,18.30
2018-09-23T07:49:41.296Z,18.30
2018-09-23T07:52:09.651Z,18.30
2018-09-23T07:54:38.001Z,18.30
2018-09-23T07:57:06.438Z,18.30
2018-09-23T07:59:34.779Z,18.20
2018-09-23T08:02:03.157Z,18.30
2018-09-23T08:04:31.500Z,18.20
2018-09-23T08:06:59.833Z,18.20
2018-09-23T08:09:28.216Z,18.20
2018-09-23T08:11:56.541Z,18.20
2018-09-23T08:14:25.404Z,18.30
2018-09-23T08:16:53.312Z,18.40
2018-09-23T08:19:21.736Z,18.50
2018-09-23T08:21:50.015Z,18.60
2018-09-23T08:24:18.416Z,18.70
2018-09-23T08:26:46.803Z,18.80
2018-09-23T08:29:15.149Z,18.80
2018-09-23T08:31:43.542Z,18.80
2018-09-23T08:34:11.888Z,18.70
2018-09-23T08:36:40.251Z,18.80
2018-09-23T08:39:08.603Z,18.80
2018-09-23T08:41:36.938Z,18.70
2018-09-23T08:44:05.280Z,18.80
2018-09-23T08:46:33.657Z,18.80
2018-09-23T08:49:02.029Z,18.70
2018-09-23T08:51:30.384Z,18.60
2018-09-23T08:53:58.977Z,18.50
2018-09-23T08:56:27.657Z,18.40
2018-09-23T08:58:56.284Z,18.40
2018-09-23T09:01:24.622Z,18.50
2018-09-23T09:03:52.961Z,18.60
2018-09-23T09:06:21.316Z,18.60
2018-09-23T09:08:49.656Z,18.80
2018-09-23T09:11:18.073Z,18.90
2018-09-23T09:13:46.365Z,18.90
2018-09-23T09:16:14.719Z,19.10
2018-09-23T09:18:43.307Z,19.20
2018-09-23T09:21:11.474Z,19.60
2018-09-23T09:23:39.776Z,19.60
2018-09-23T09:26:08.173Z,19.80
2018-09-23T09:28:36.529Z,20.00
2018-09-23T09:31:04.981Z,20.10
2018-09-23T09:33:33.330Z,20.50
2018-09-23T09:36:01.716Z,20.50
2018-09-23T09:38:30.066Z,20.50
2018-09-23T09:40:58.403Z,20.60
2018-09-23T09:43:26.761Z,20.60
2018-09-23T09:45:55.092Z,20.70
2018-09-23T09:48:23.455Z,20.60
2018-09-23T09:50:51.845Z,20.50
2018-09-23T09:53:20.181Z,20.40
2018-09-23T09:55:48.576Z,20.50
2018-09-23T09:58:16.943Z,20.50
2018-09-23T10:00:45.331Z,20.50
2018-09-23T10:03:13.661Z,20.60
2018-09-23T10:05:42.001Z,20.60
2018-09-23T10:08:10.426Z,20.60
2018-09-23T10:10:38.786Z,20.60
2018-09-23T10:13:07.237Z,20.70
2018-09-23T10:15:35.625Z,20.70
2018-09-23T10:18:03.984Z,20.70
2018-09-23T10:20:32.378Z,20.90
2018-09-23T10:23:00.769Z,21.00
2018-09-23T10:25:29.090Z,21.00
2018-09-23T10:27:57.470Z,21.10
2018-09-23T10:30:25.780Z,21.20
2018-09-23T10:32:54.249Z,21.30
2018-09-23T10:35:22.637Z,21.30
2018-09-23T10:37:51.016Z,21.40
2018-09-23T10:40:19.400Z,21.40
2018-09-23T10:42:47.789Z,21.50
2018-09-23T10:45:16.180Z,21.70
2018-09-23T10:47:44.592Z,21.80
2018-09-23T10:50:12.931Z,21.90
2018-09-23T10:52:41.301Z,21.90
2018-09-23T10:55:09.643Z,22.00
2018-09-23T10:57:38.029Z,21.90
2018-09-23T11:00:06.457Z,21.80
2018-09-23T11:02:34.857Z,21.80
2018-09-23T11:05:03.197Z,21.80
2018-09-23T11:07:31.649Z,21.90
2018-09-23T11:09:59.963Z,21.80
2018-09-23T11:12:28.323Z,21.90
2018-09-23T11:14:56.684Z,22.00
2018-09-23T11:17:25.096Z,22.00
2018-09-23T11:19:53.427Z,22.00
2018-09-23T11:22:21.756Z,21.90
2018-09-23T11:24:50.196Z,22.00
2018-09-23T11:27:18.489Z,21.90
2018-09-23T11:29:46.880Z,21.80
2018-09-23T11:32:15.252Z,21.80
2018-09-23T11:34:43.588Z,21.80
2018-09-23T11:37:11.980Z,21.80
2018-09-23T11:39:40.330Z,21.80
2018-09-23T11:42:08.668Z,21.90
2018-09-23T11:44:37.056Z,21.90
2018-09-23T11:47:05.539Z,21.90
2018-09-23T11:49:33.900Z,21.90
2018-09-23T11:52:02.232Z,22.00
2018-09-23T11:54:30.574Z,22.10
2018-09-23T11:56:58.960Z,22.10
2018-09-23T11:59:27.334Z,22.10
2018-09-23T12:01:57.547Z,22.20
2018-09-23T12:04:25.944Z,22.30
2018-09-23T12:06:54.265Z,22.50
2018-09-23T12:09:22.673Z,22.80
2018-09-23T12:11:50.967Z,23.00
2018-09-23T12:14:19.312Z,23.20
2018-09-23T12:16:47.663Z,23.50
2018-09-23T12:19:16.069Z,23.90
2018-09-23T12:21:44.418Z,24.60
2018-09-23T12:24:12.881Z,25.10
2018-09-23T12:26:41.228Z,25.80
2018-09-23T12:29:09.580Z,26.10
2018-09-23T12:31:37.932Z,25.70
2018-09-23T12:34:06.317Z,25.50
2018-09-23T12:36:34.668Z,25.70
2018-09-23T12:39:03.135Z,25.50
2018-09-23T12:41:31.545Z,25.40
2018-09-23T12:43:59.903Z,25.50
2018-09-23T12:46:28.241Z,26.00
2018-09-23T12:48:56.672Z,26.00
2018-09-23T12:51:25.045Z,25.80
2018-09-23T12:53:53.433Z,25.60
2018-09-23T12:56:21.744Z,25.60
2018-09-23T12:58:50.132Z,25.90
2018-09-23T13:01:18.521Z,26.20
2018-09-23T13:03:46.863Z,26.30
2018-09-23T13:06:15.167Z,26.30
2018-09-23T13:08:43.586Z,26.50
2018-09-23T13:11:11.979Z,26.40
2018-09-23T13:13:40.335Z,26.10
2018-09-23T13:16:08.690Z,25.60
2018-09-23T13:18:37.145Z,25.40
2018-09-23T13:21:05.531Z,25.00
2018-09-23T13:23:33.849Z,24.70
2018-09-23T13:26:02.251Z,24.80
2018-09-23T13:28:30.612Z,24.70
2018-09-23T13:30:58.982Z,24.40
2018-09-23T13:33:27.376Z,24.30
2018-09-23T13:35:55.721Z,24.10
2018-09-23T13:38:24.093Z,24.00
2018-09-23T13:40:52.438Z,24.00
2018-09-23T13:43:20.756Z,23.90
2018-09-23T13:45:49.131Z,23.90
2018-09-23T13:48:17.474Z,23.90
2018-09-23T13:50:45.872Z,24.10
2018-09-23T13:53:14.235Z,24.20
2018-09-23T13:55:43.438Z,24.30
2018-09-23T13:58:11.817Z,24.30
2018-09-23T14:00:40.136Z,24.20
2018-09-23T14:03:08.690Z,24.00
2018-09-23T14:05:37.044Z,23.80
2018-09-23T14:08:05.427Z,23.80
2018-09-23T14:10:33.732Z,23.70
2018-09-23T14:13:02.126Z,23.60
2018-09-23T14:15:30.500Z,23.60
2018-09-23T14:17:58.875Z,23.40
2018-09-23T14:20:27.211Z,23.20
2018-09-23T14:22:55.653Z,22.80
2018-09-23T14:25:24.057Z,22.30
2018-09-23T14:27:52.434Z,22.10
2018-09-23T14:30:20.781Z,22.10
2018-09-23T14:32:49.257Z,22.20
2018-09-23T14:35:17.641Z,22.30
2018-09-23T14:37:45.956Z,22.40
2018-09-23T14:40:14.337Z,22.50
2018-09-23T14:42:42.706Z,22.50
2018-09-23T14:45:11.082Z,22.30
2018-09-23T14:47:39.478Z,22.30
2018-09-23T14:50:08.217Z,22.30
2018-09-23T14:52:36.609Z,22.20
2018-09-23T14:55:05.197Z,22.10
2018-09-23T14:57:33.477Z,22.10
2018-09-23T15:00:03.205Z,22.10
2018-09-23T15:02:30.260Z,22.20
2018-09-23T15:04:58.629Z,22.20
2018-09-23T15:07:26.986Z,22.10
2018-09-23T15:09:55.389Z,22.20
2018-09-23T15:12:23.748Z,22.20
2018-09-23T15:14:52.105Z,22.30
2018-09-23T15:17:20.474Z,22.40
2018-09-23T15:19:48.881Z,22.40
2018-09-23T15:22:17.248Z,22.40
2018-09-23T15:24:45.570Z,22.60
2018-09-23T15:27:13.932Z,22.60
2018-09-23T15:29:42.260Z,22.60
2018-09-23T15:32:10.709Z,22.60
2018-09-23T15:34:38.980Z,22.60
2018-09-23T15:37:07.423Z,22.60
2018-09-23T15:39:35.771Z,22.70
2018-09-23T15:42:04.217Z,22.60
2018-09-23T15:44:32.591Z,22.60
2018-09-23T15:47:00.930Z,22.60
2018-09-23T15:49:29.340Z,22.70
2018-09-23T15:51:57.775Z,22.40
2018-09-23T15:54:26.335Z,20.50
2018-09-23T15:56:54.688Z,19.10
2018-09-23T15:59:23.083Z,17.90
2018-09-23T16:01:51.535Z,17.50
2018-09-23T16:04:20.148Z,17.20
2018-09-23T16:06:49.079Z,17.20
2018-09-23T16:09:17.568Z,17.20
2018-09-23T16:11:45.939Z,17.10
2018-09-23T16:14:14.390Z,17.20
2018-09-23T16:16:42.747Z,17.20
2018-09-23T16:19:11.285Z,17.30
2018-09-23T16:21:39.655Z,17.30
2018-09-23T16:24:08.064Z,17.20
2018-09-23T16:26:36.393Z,17.20
2018-09-23T16:29:04.794Z,17.20
2018-09-23T16:31:33.176Z,17.20
2018-09-23T16:34:01.560Z,17.10
2018-09-23T16:36:29.930Z,17.10
2018-09-23T16:38:58.301Z,17.00
2018-09-23T16:41:26.655Z,16.90
2018-09-23T16:43:55.071Z,16.90
2018-09-23T16:46:23.469Z,16.80
2018-09-23T16:48:51.843Z,16.80
2018-09-23T16:51:20.243Z,16.80
2018-09-23T16:53:48.665Z,16.80
2018-09-23T16:56:17.369Z,16.70
2018-09-23T16:58:45.801Z,16.70
2018-09-23T17:01:14.179Z,16.80
2018-09-23T17:03:42.532Z,16.70
2018-09-23T17:06:10.898Z,16.70
2018-09-23T17:08:39.240Z,16.70
2018-09-23T17:11:07.677Z,16.80
2018-09-23T17:13:36.020Z,16.80
2018-09-23T17:16:04.426Z,16.80
2018-09-23T17:18:32.781Z,16.80
2018-09-23T17:21:01.204Z,16.70
2018-09-23T17:23:29.561Z,16.70
2018-09-23T17:25:57.992Z,16.60
2018-09-23T17:28:26.528Z,16.50
2018-09-23T17:30:54.776Z,16.40
2018-09-23T17:33:23.099Z,16.40
2018-09-23T17:35:51.479Z,16.40
2018-09-23T17:38:19.875Z,16.50
2018-09-23T17:40:48.243Z,16.40
2018-09-23T17:43:16.621Z,16.40
2018-09-23T17:45:44.998Z,16.40
2018-09-23T17:48:13.379Z,16.20
2018-09-23T17:50:41.748Z,16.00
2018-09-23T17:53:10.120Z,15.70
2018-09-23T17:55:38.549Z,15.60
2018-09-23T17:58:08.394Z,15.50
2018-09-23T18:00:35.820Z,15.20
2018-09-23T18:03:04.201Z,15.10
2018-09-23T18:05:32.569Z,15.10
2018-09-23T18:08:00.988Z,15.00
2018-09-23T18:10:29.520Z,14.80
2018-09-23T18:12:58.234Z,14.70
2018-09-23T18:15:26.941Z,14.60
2018-09-23T18:17:56.004Z,14.60
2018-09-23T18:20:24.469Z,14.50
2018-09-23T18:22:52.958Z,14.40
2018-09-23T18:25:21.338Z,14.30
2018-09-23T18:27:49.768Z,14.10
2018-09-23T18:30:18.984Z,14.00
2018-09-23T18:32:48.333Z,13.90
2018-09-23T18:35:18.384Z,13.90
2018-09-23T18:37:48.502Z,13.90
2018-09-23T18:40:18.219Z,13.90
2018-09-23T18:42:46.969Z,13.90
2018-09-23T18:45:16.250Z,13.80
2018-09-23T18:47:44.656Z,13.70
2018-09-23T18:50:13.195Z,13.70
2018-09-23T18:52:41.595Z,13.70
2018-09-23T18:55:15.384Z,13.60
2018-09-23T18:57:43.793Z,13.60
2018-09-23T19:00:12.492Z,13.60
2018-09-23T19:02:41.036Z,13.60
2018-09-23T19:05:09.759Z,13.60
2018-09-23T19:07:38.561Z,13.60
2018-09-23T19:10:06.991Z,13.60
2018-09-23T19:12:35.443Z,13.60
2018-09-23T19:15:03.945Z,13.60
2018-09-23T19:17:32.553Z,13.50
2018-09-23T19:20:06.433Z,13.50
2018-09-23T19:22:40.129Z,13.50
2018-09-23T19:25:08.568Z,13.50
2018-09-23T19:27:37.253Z,13.40
2018-09-23T19:30:05.840Z,13.40
2018-09-23T19:32:34.283Z,13.40
2018-09-23T19:35:02.665Z,13.40
2018-09-23T19:37:31.124Z,13.30
2018-09-23T19:39:59.480Z,13.30
2018-09-23T19:42:27.872Z,13.30
2018-09-23T19:44:56.306Z,13.30
2018-09-23T19:47:24.870Z,13.10
2018-09-23T19:49:53.665Z,13.10
2018-09-23T19:52:22.497Z,13.10
2018-09-23T19:54:50.969Z,13.00
2018-09-23T19:57:19.612Z,12.90
2018-09-23T19:59:48.276Z,12.90
2018-09-23T20:02:16.605Z,12.80
2018-09-23T20:04:45.000Z,12.70
2018-09-23T20:07:13.401Z,12.70
2018-09-23T20:09:41.797Z,12.70
2018-09-23T20:12:10.248Z,12.70
2018-09-23T20:14:38.752Z,12.80
2018-09-23T20:17:07.163Z,12.80
2018-09-23T20:19:35.547Z,12.80
2018-09-23T20:22:04.731Z,12.80
2018-09-23T20:24:33.105Z,12.70
2018-09-23T20:27:01.448Z,12.70
2018-09-23T20:29:29.865Z,12.70
2018-09-23T20:31:58.241Z,12.70
2018-09-23T20:34:26.741Z,12.60
2018-09-23T20:36:55.121Z,12.60
2018-09-23T20:39:23.445Z,12.60
2018-09-23T20:41:52.088Z,12.60
2018-09-23T20:44:20.606Z,12.60
2018-09-23T20:46:49.180Z,12.50
2018-09-23T20:49:17.597Z,12.60
2018-09-23T20:51:46.125Z,12.50
2018-09-23T20:54:14.469Z,12.50
2018-09-23T20:56:42.897Z,12.50
2018-09-23T20:59:11.197Z,12.60
2018-09-23T21:01:39.580Z,12.50
2018-09-23T21:04:08.045Z,12.50
2018-09-23T21:06:36.421Z,12.50
2018-09-23T21:09:07.481Z,12.50
2018-09-23T21:11:35.902Z,12.50
2018-09-23T21:14:04.345Z,12.50
2018-09-23T21:16:32.786Z,12.50
2018-09-23T21:19:01.168Z,12.50
2018-09-23T21:21:29.543Z,12.40
2018-09-23T21:23:57.934Z,12.40
2018-09-23T21:26:26.310Z,12.40
2018-09-23T21:28:54.680Z,12.40
2018-09-23T21:31:23.161Z,12.40
2018-09-23T21:33:51.572Z,12.40
2018-09-23T21:36:19.908Z,12.30
2018-09-23T21:38:48.296Z,12.20
2018-09-23T21:41:16.652Z,12.20
2018-09-23T21:43:45.018Z,12.10
2018-09-23T21:46:13.357Z,12.20
2018-09-23T21:48:41.700Z,12.10
2018-09-23T21:51:10.053Z,12.00
2018-09-23T21:53:38.412Z,12.00
2018-09-23T21:56:06.789Z,12.00
2018-09-23T21:58:35.120Z,12.00
2018-09-23T22:01:03.495Z,11.90
2018-09-23T22:03:31.822Z,11.90
2018-09-23T22:06:00.176Z,11.90
2018-09-23T22:08:28.493Z,11.90
2018-09-23T22:10:56.853Z,11.90
2018-09-23T22:13:25.202Z,11.80
2018-09-23T22:15:53.554Z,11.70
2018-09-23T22:18:21.876Z,11.60
2018-09-23T22:20:50.249Z,11.60
2018-09-23T22:23:18.577Z,11.60
2018-09-23T22:25:46.957Z,11.60
2018-09-23T22:28:15.337Z,11.40
2018-09-23T22:30:43.688Z,11.50
2018-09-23T22:33:12.039Z,11.30
2018-09-23T22:35:40.346Z,11.30
2018-09-23T22:38:08.820Z,11.30
2018-09-23T22:40:37.157Z,11.20
2018-09-23T22:43:06.066Z,11.20
2018-09-23T22:45:34.424Z,11.10
2018-09-23T22:48:02.800Z,11.10
2018-09-23T22:50:31.179Z,11.00
2018-09-23T22:52:59.517Z,11.00
2018-09-23T22:55:27.848Z,11.00
2018-09-23T22:57:56.206Z,11.00
2018-09-23T23:00:24.576Z,11.00
2018-09-23T23:02:52.929Z,11.00
2018-09-23T23:05:21.264Z,11.00
2018-09-23T23:07:49.612Z,10.90
2018-09-23T23:10:17.928Z,10.90
2018-09-23T23:12:46.311Z,10.90
2018-09-23T23:15:14.644Z,10.90
2018-09-23T23:17:43.012Z,10.90
2018-09-23T23:20:11.399Z,10.90
2018-09-23T23:22:39.725Z,10.80
2018-09-23T23:25:08.092Z,10.80
2018-09-23T23:27:36.409Z,10.80
2018-09-23T23:30:05.104Z,10.80
2018-09-23T23:32:33.413Z,10.70
2018-09-23T23:35:01.752Z,10.70
2018-09-23T23:37:30.081Z,10.70
2018-09-23T23:39:58.532Z,10.70
2018-09-23T23:42:26.844Z,10.80
2018-09-23T23:44:55.190Z,10.90
2018-09-23T23:47:23.503Z,10.90
2018-09-23T23:49:51.835Z,10.90
2018-09-23T23:52:20.172Z,11.00
2018-09-23T23:54:48.489Z,11.00
2018-09-23T23:57:16.843Z,10.90
2018-09-23T23:59:45.199Z,10.90
